San Jose, Costa Rica

10:51 AM CST on October 23, 2014 (GMT -0600)
Pozos de Santa Ana | Change Station
CLOSE
Current Station
Personal Weather Station
Location: San Josť, SAN JOSť
Elevation: 2825 ft
Nearby Weather Stations

Elev 2825 ft 9.96 °N, 84.19 °W | Updated 58 seconds ago

Scattered Clouds
Scattered Clouds
87.3 °F
Feels Like 94 °F
N
3.8
Wind Variable Wind from SE
Gusts 5.4 mph

Today
High -- | Low -- °F
--% Chance of Precip.
Yesterday
High -- | Low -- °F
Precip. -- in
5:25 AM 5:16 PM
Waning Crescent, 0% visible
Pressure 30.05 in
Visibility 6.2 miles
Clouds Few 3000 ft
Scattered Clouds 25000 ft
Heat Index 94 °F
Dew Point 72 °F
Humidity 61%
Rainfall 0.00 in
Snow Depth Not available.
UV 11 out of 12
Pollen Not available.
Air Quality Not available.
Flu Activity Not available.
METAR MROC 231600Z 23010KT 9999 FEW030 SCT250 26/19 A3005 NOSIG

More Conditions Fewer Conditions

Pressure 30.05 in
Visibility 6.2 miles
Clouds Few 3000 ft
Scattered Clouds 25000 ft
Heat Index 94 °F
Dew Point 72 °F
Humidity 61%
Rainfall 0.00 in
Snow Depth Not available.
UV 11 out of 12
Pollen Not available.
Air Quality Not available.
Flu Activity Not available.
METAR MROC 231600Z 23010KT 9999 FEW030 SCT250 26/19 A3005 NOSIG

More Conditions Fewer Conditions

10-Day Weather Forecast

Almanac

Astronomy

Oct. 23, 2014 Rise Set
Actual Time 5:25 AM CST 5:16 PM CST
Civil Twilight 5:04 AM CST 5:37 PM CST
Nautical Twilight 4:39 AM CST 6:02 PM CST
Astronomical Twilight 4:15 AM CST 6:27 PM CST
Moon 5:09 AM CST 5:17 PM CST
Length of Visible Light 12h 33m
Length of Day
11h 50m
Tomorrow will be 0m 30s shorter.
Waning Crescent, 0% of the Moon is Illuminated
Today
Waning Crescent
Oct 23
New
Oct 30
First Quarter
Nov 6
Full
Nov 14
Last Quarter

Today's Extremes

Country Highs Country Lows

Community

WunderPhotos

Upload Photos

1,764,308 photos uploaded!

WunderBlogs® & News

Nearby

Snow Depth

Not available.

Earthquake Activity

City Distance Mag. Time & Date
No recent earthquake activity has been reported nearby.
Minimum magnitude displayed is 2.5.

Coastal Water Temperatures

Place Temperature
No Stations Reporting

Nearby Weather Stations